ROMMA est une association bénévole à but non lucratif. Votre soutien est indispensable : ADHERER à ROMMA ou FAIRE un DON

Die - (26, Drôme)

Diois (400 m)   Longitude: 5° 21' 55"E   Latitude: 44° 45' 16"N Station partenaire n°159
 

Détail journalier du     <<     >>

Température Precipitation Humidité Pression Vent Dir Rafale Dir. rafale Ensol.
Heure (°C) (mm) (%) (hPa) (km/h) (km/h) (min)
01:00 7.0096102003SO0
02:00 6.7095102003SO0
03:00 5.6095102003SE0
04:00 4.9096102105SO0
05:00 5.109610211SO6SSO0
06:00 5.5097102105SSO0
07:00 4.9096102105NNO0
08:00 5.20.29710212NE6SSO0
09:00 7.109710212O6ONO0
10:00 13.507710225ONO15ONO0
11:00 17.105310226NO18ONO60
12:00 18.204710225NO23NO60
13:00 18.204810227NO21NO30
14:00 18.704710225NO19NNO60
15:00 19.604310216N24ONO60
16:00 20.903910216NO24O60
17:00 20.504010216NO19NO60
18:00 18.204710217NO23NO60
19:00 16.605210215ONO21NO0
20:00 15.305710217ONO19NO0
21:00 14.805610215ONO16NO0
22:00 10.407410222N15OSO0
23:00 8.5081102206SSO0
minuit 7.108410221S5S0

Graphique du 10-10-2019

 

Serveur OMMA